Time;durP1;ratioP1;P1;durP2;ratioP2;P2;SDS_P1;SDS_P2;PMS_P1;PMS_P2;Temp;Humidity;BMP_temperature;BMP_pressure;BME280_temperature;BME280_humidity;BME280_pressure;Samples;Min_cycle;Max_cycle;Signal;HPM_P1;HPM_P2
2023/05/12 00:01:53;;;;;;;0.00;0.00;;;13.20;99.90;;;;;;4938014;28;20201;-82
2023/05/12 00:04:19;;;;;;;0.00;0.00;;;13.20;99.90;;;;;;4955791;28;20190;-82
2023/05/12 00:06:44;;;;;;;0.00;0.00;;;13.30;99.90;;;;;;4969924;28;20218;-82
2023/05/12 00:09:09;;;;;;;0.03;0.03;;;13.40;99.90;;;;;;4969437;28;20672;-82
2023/05/12 00:11:36;;;;;;;0.00;0.00;;;13.40;99.90;;;;;;4969792;28;20196;-82
2023/05/12 00:14:02;;;;;;;0.00;0.00;;;13.30;99.90;;;;;;4935616;29;20206;-82
2023/05/12 00:16:28;;;;;;;0.00;0.00;;;13.30;99.90;;;;;;4953428;28;20457;-82
2023/05/12 00:18:53;;;;;;;0.03;0.03;;;13.30;99.90;;;;;;4971238;28;20174;-82
2023/05/12 00:21:19;;;;;;;0.00;0.00;;;13.30;99.90;;;;;;4966223;28;20209;-81
2023/05/12 00:23:44;;;;;;;0.00;0.00;;;13.30;99.90;;;;;;4960860;28;20187;-81
2023/05/12 00:26:10;;;;;;;0.00;0.00;;;13.30;99.90;;;;;;4958581;28;20204;-81
2023/05/12 00:28:35;;;;;;;0.00;0.00;;;13.30;99.90;;;;;;4949596;28;20593;-82
2023/05/12 00:31:05;;;;;;;0.00;0.00;;;13.30;99.90;;;;;;4958223;28;20209;-81
2023/05/12 00:33:30;;;;;;;0.03;0.03;;;13.30;99.90;;;;;;4969868;28;20193;-81
2023/05/12 00:35:56;;;;;;;0.00;0.00;;;13.30;99.90;;;;;;4970909;28;20523;-82
2023/05/12 00:38:21;;;;;;;0.07;0.07;;;13.40;99.90;;;;;;4968442;28;20197;-82
2023/05/12 00:40:47;;;;;;;0.00;0.00;;;13.30;99.90;;;;;;4968018;28;20193;-82
2023/05/12 00:43:12;;;;;;;0.00;0.00;;;13.30;99.90;;;;;;4956472;28;20194;-81
2023/05/12 00:45:38;;;;;;;0.00;0.00;;;13.30;99.90;;;;;;4965071;28;20208;-81
2023/05/12 00:48:05;;;;;;;0.00;0.00;;;13.20;99.90;;;;;;4980741;28;20272;-81
2023/05/12 00:50:30;;;;;;;0.00;0.00;;;13.40;99.90;;;;;;4969376;28;20190;-82
2023/05/12 00:52:57;;;;;;;0.03;0.03;;;13.20;99.90;;;;;;4969483;28;20970;-82
2023/05/12 00:55:24;;;;;;;0.00;0.00;;;13.30;99.90;;;;;;4981865;28;20315;-81
2023/05/12 00:57:49;;;;;;;0.00;0.00;;;13.20;99.90;;;;;;4986071;28;20772;-82
2023/05/12 01:00:15;;;;;;;0.00;0.00;;;13.20;99.90;;;;;;4960525;28;20457;-82
2023/05/12 01:02:41;;;;;;;0.00;0.00;;;13.20;99.90;;;;;;4953177;28;20245;-81
2023/05/12 01:05:08;;;;;;;0.00;0.00;;;13.10;99.90;;;;;;4955244;28;20222;-81
2023/05/12 01:07:35;;;;;;;0.00;0.00;;;13.10;99.90;;;;;;4967149;28;20373;-81
2023/05/12 01:10:00;;;;;;;0.00;0.00;;;13.20;99.90;;;;;;4975158;28;20940;-82
2023/05/12 01:12:27;;;;;;;0.00;0.00;;;13.10;99.90;;;;;;4954237;28;20487;-81
2023/05/12 01:14:54;;;;;;;0.00;0.00;;;13.10;99.90;;;;;;4976244;28;20198;-81
2023/05/12 01:17:24;;;;;;;0.10;0.10;;;13.10;99.90;;;;;;4937026;28;20930;-81
2023/05/12 01:19:53;;;;;;;0.00;0.00;;;13.00;99.90;;;;;;4959802;28;20437;-81
2023/05/12 01:22:19;;;;;;;0.00;0.00;;;13.00;99.90;;;;;;4970790;28;20478;-81
2023/05/12 01:24:49;;;;;;;0.03;0.03;;;13.10;99.90;;;;;;4956973;28;20452;-81
2023/05/12 01:27:16;;;;;;;0.00;0.00;;;13.10;99.90;;;;;;4957433;28;20496;-81
2023/05/12 01:29:45;;;;;;;0.07;0.07;;;13.00;99.90;;;;;;4987534;28;20468;-81
2023/05/12 01:32:11;;;;;;;0.00;0.00;;;13.00;99.90;;;;;;4974663;28;20540;-81
2023/05/12 01:34:37;;;;;;;0.07;0.07;;;13.00;99.90;;;;;;4964032;28;20461;-81
2023/05/12 01:37:02;;;;;;;0.00;0.00;;;13.10;99.90;;;;;;4972142;28;20861;-81
2023/05/12 01:39:28;;;;;;;0.00;0.00;;;13.00;99.90;;;;;;4968034;28;20214;-80
2023/05/12 01:41:53;;;;;;;0.00;0.00;;;12.90;99.90;;;;;;4956981;28;20190;-81
2023/05/12 01:44:20;;;;;;;0.00;0.00;;;12.90;99.90;;;;;;4972003;28;20197;-81
2023/05/12 01:46:45;;;;;;;0.00;0.00;;;12.90;99.90;;;;;;4962795;28;20185;-81
2023/05/12 01:49:11;;;;;;;0.10;0.10;;;12.90;99.90;;;;;;4985246;28;20484;-81
2023/05/12 01:51:36;;;;;;;0.00;0.00;;;13.10;99.90;;;;;;4971784;28;20260;-80
2023/05/12 01:54:02;;;;;;;0.00;0.00;;;12.90;99.90;;;;;;4964169;28;20195;-81
2023/05/12 01:56:28;;;;;;;0.00;0.00;;;12.90;99.90;;;;;;4982928;28;20182;-81
2023/05/12 01:58:53;;;;;;;0.00;0.00;;;13.10;99.90;;;;;;4959328;28;20187;-81
2023/05/12 02:01:19;;;;;;;0.00;0.00;;;12.90;99.90;;;;;;4969850;28;20195;-81
2023/05/12 02:03:44;;;;;;;0.00;0.00;;;12.90;99.90;;;;;;4990621;28;20193;-81
2023/05/12 02:06:10;;;;;;;0.00;0.00;;;12.40;99.90;;;;;;4980346;28;20194;-80
2023/05/12 02:08:35;;;;;;;0.00;0.00;;;13.20;99.90;;;;;;4972983;28;20237;-80
2023/05/12 02:11:08;;;;;;;0.00;0.00;;;12.80;99.90;;;;;;4971687;28;20198;-81
2023/05/12 02:13:33;;;;;;;0.07;0.07;;;13.00;99.90;;;;;;4971972;28;20198;-82
2023/05/12 02:16:00;;;;;;;0.00;0.00;;;12.90;99.90;;;;;;4963852;28;20897;-81
2023/05/12 02:18:25;;;;;;;0.07;0.07;;;12.90;99.90;;;;;;4974106;28;20560;-81
2023/05/12 02:20:51;;;;;;;0.10;0.10;;;13.10;99.90;;;;;;4971142;28;20508;-82
2023/05/12 02:23:16;;;;;;;0.07;0.07;;;12.90;99.90;;;;;;4972542;28;20220;-81
2023/05/12 02:25:42;;;;;;;0.00;0.00;;;13.00;99.90;;;;;;4956223;28;20201;-81
2023/05/12 02:28:09;;;;;;;0.10;0.10;;;12.90;99.90;;;;;;4968285;28;20214;-81
2023/05/12 02:30:35;;;;;;;0.00;0.00;;;13.10;99.90;;;;;;4963011;28;20178;-81
2023/05/12 02:33:01;;;;;;;0.03;0.03;;;13.10;99.90;;;;;;4970609;28;20480;-81
2023/05/12 02:35:27;;;;;;;0.07;0.07;;;13.10;99.90;;;;;;4964146;28;20446;-80
2023/05/12 02:37:52;;;;;;;0.03;0.03;;;13.10;99.90;;;;;;4946372;28;20201;-81
2023/05/12 02:40:18;;;;;;;0.10;0.10;;;13.10;99.90;;;;;;4980890;28;20232;-81
2023/05/12 02:42:44;;;;;;;0.00;0.00;;;13.10;99.90;;;;;;4971842;28;20216;-81
2023/05/12 02:45:10;;;;;;;0.00;0.00;;;13.00;99.90;;;;;;4975734;28;20185;-81
2023/05/12 02:47:36;;;;;;;0.00;0.00;;;13.00;99.90;;;;;;4975481;28;20503;-82
2023/05/12 02:50:02;;;;;;;0.00;0.00;;;13.10;99.90;;;;;;4972840;28;20973;-82
2023/05/12 02:52:27;;;;;;;0.07;0.07;;;12.90;99.90;;;;;;4968317;28;20652;-81
2023/05/12 02:54:54;;;;;;;0.00;0.00;;;12.80;99.90;;;;;;4968653;28;20587;-82
2023/05/12 02:57:20;;;;;;;0.00;0.00;;;12.80;99.90;;;;;;4953317;28;20597;-81
2023/05/12 02:59:46;;;;;;;0.00;0.00;;;12.80;99.90;;;;;;4952768;28;20458;-81
2023/05/12 03:02:11;;;;;;;0.00;0.00;;;12.90;99.90;;;;;;4969172;28;20240;-81
2023/05/12 03:04:37;;;;;;;0.10;0.10;;;12.90;99.90;;;;;;4970731;28;20198;-81
2023/05/12 03:07:03;;;;;;;0.00;0.00;;;12.90;99.90;;;;;;4970512;28;20230;-82
2023/05/12 03:09:28;;;;;;;0.10;0.10;;;12.80;99.90;;;;;;4937410;28;20217;-82
2023/05/12 03:11:53;;;;;;;0.00;0.00;;;12.90;99.90;;;;;;4967297;28;20647;-81
2023/05/12 03:14:19;;;;;;;0.07;0.07;;;12.90;99.90;;;;;;4965349;28;20190;-82
2023/05/12 03:16:44;;;;;;;0.00;0.00;;;12.80;99.90;;;;;;4958092;28;20189;-82
2023/05/12 03:19:10;;;;;;;0.10;0.10;;;13.10;99.90;;;;;;4951943;28;20286;-82
2023/05/12 03:21:36;;;;;;;0.00;0.00;;;12.80;99.90;;;;;;4935798;29;20678;-82
2023/05/12 03:24:01;;;;;;;0.03;0.03;;;12.70;99.90;;;;;;4951945;28;20197;-82
2023/05/12 03:26:27;;;;;;;0.00;0.00;;;12.60;99.90;;;;;;4951036;28;20197;-82
2023/05/12 03:28:52;;;;;;;0.00;0.00;;;12.60;99.90;;;;;;4951037;28;20229;-82
2023/05/12 03:31:18;;;;;;;0.00;0.00;;;12.70;99.90;;;;;;4961739;28;20265;-82
2023/05/12 03:33:43;;;;;;;0.03;0.03;;;12.60;99.90;;;;;;4975601;28;20197;-81
2023/05/12 03:36:09;;;;;;;0.10;0.10;;;12.30;99.90;;;;;;4965769;28;20548;-82
2023/05/12 03:38:35;;;;;;;0.07;0.07;;;12.50;99.90;;;;;;4952230;28;20190;-82
2023/05/12 03:41:05;;;;;;;0.00;0.00;;;12.60;99.90;;;;;;4963280;28;20196;-82
2023/05/12 03:43:31;;;;;;;0.00;0.00;;;12.50;99.90;;;;;;4971561;28;20417;-82
2023/05/12 03:45:56;;;;;;;0.07;0.07;;;12.60;99.90;;;;;;4966540;28;20443;-82
2023/05/12 03:48:22;;;;;;;0.10;0.10;;;12.60;99.90;;;;;;4962551;28;20236;-82
2023/05/12 03:50:47;;;;;;;0.00;0.00;;;12.70;99.90;;;;;;4981325;28;20174;-81
2023/05/12 03:53:13;;;;;;;0.03;0.03;;;12.60;99.90;;;;;;4984788;28;20594;-81
2023/05/12 03:55:38;;;;;;;0.10;0.10;;;12.70;99.90;;;;;;4952014;28;20266;-82
2023/05/12 03:58:04;;;;;;;0.10;0.10;;;12.70;99.90;;;;;;4978171;28;20196;-81
2023/05/12 04:00:29;;;;;;;0.00;0.00;;;12.70;99.90;;;;;;4974044;28;20556;-82
2023/05/12 04:02:55;;;;;;;0.10;0.10;;;12.70;99.90;;;;;;4992206;28;20190;-82
2023/05/12 04:05:20;;;;;;;0.00;0.00;;;12.90;99.90;;;;;;4962674;28;20282;-81
2023/05/12 04:07:46;;;;;;;0.03;0.03;;;12.90;99.90;;;;;;4958574;28;20246;-82
2023/05/12 04:10:11;;;;;;;0.00;0.00;;;12.80;99.90;;;;;;4978083;28;20200;-81
2023/05/12 04:12:37;;;;;;;0.10;0.10;;;12.80;99.90;;;;;;4963050;28;20204;-81
2023/05/12 04:15:03;;;;;;;0.00;0.00;;;12.80;99.90;;;;;;4970042;28;20193;-82
2023/05/12 04:17:28;;;;;;;0.00;0.00;;;12.80;99.90;;;;;;4984776;28;20662;-81
2023/05/12 04:19:54;;;;;;;0.00;0.00;;;12.80;99.90;;;;;;4975746;28;20182;-82
2023/05/12 04:22:19;;;;;;;0.00;0.00;;;13.00;99.90;;;;;;4968511;28;20189;-82
2023/05/12 04:24:45;;;;;;;0.07;0.07;;;13.00;99.90;;;;;;4968305;28;20185;-82
2023/05/12 04:27:10;;;;;;;0.00;0.00;;;13.00;99.90;;;;;;4964216;28;20300;-81
2023/05/12 04:29:36;;;;;;;0.00;0.00;;;13.10;99.90;;;;;;4969883;28;20231;-82
2023/05/12 04:32:01;;;;;;;0.00;0.00;;;13.10;99.90;;;;;;4972544;28;20186;-81
2023/05/12 04:34:27;;;;;;;0.03;0.03;;;13.20;99.90;;;;;;4971712;28;20252;-81
2023/05/12 04:36:52;;;;;;;0.00;0.00;;;13.40;99.90;;;;;;4972338;28;20204;-81
2023/05/12 04:39:18;;;;;;;0.00;0.00;;;13.30;99.90;;;;;;4978602;28;20197;-82
2023/05/12 04:41:43;;;;;;;0.00;0.00;;;13.30;99.90;;;;;;4977757;28;20679;-82
2023/05/12 04:44:09;;;;;;;0.00;0.00;;;13.40;99.90;;;;;;4979042;28;20204;-82
2023/05/12 04:46:34;;;;;;;0.00;0.00;;;13.30;99.90;;;;;;4970723;28;20197;-81
2023/05/12 04:49:00;;;;;;;0.00;0.00;;;13.40;99.90;;;;;;4958211;28;20236;-82
2023/05/12 04:51:26;;;;;;;0.00;0.00;;;13.50;99.90;;;;;;4975355;28;20193;-81
2023/05/12 04:53:51;;;;;;;0.00;0.00;;;13.50;99.90;;;;;;4991456;28;20455;-83
2023/05/12 04:56:17;;;;;;;0.00;0.00;;;13.60;99.90;;;;;;4973062;28;20189;-82
2023/05/12 04:58:42;;;;;;;0.00;0.00;;;13.70;99.90;;;;;;4967828;28;20650;-82
2023/05/12 05:01:08;;;;;;;0.00;0.00;;;13.70;99.90;;;;;;4967310;28;20535;-81
2023/05/12 05:03:33;;;;;;;0.00;0.00;;;13.70;99.90;;;;;;4976805;28;20190;-82
2023/05/12 05:05:59;;;;;;;0.00;0.00;;;13.70;99.90;;;;;;4979177;28;20193;-82
2023/05/12 05:08:24;;;;;;;0.00;0.00;;;13.90;99.90;;;;;;4970324;28;20240;-82
2023/05/12 05:10:50;;;;;;;0.00;0.00;;;13.80;99.90;;;;;;4993516;28;20553;-82
2023/05/12 05:13:15;;;;;;;0.00;0.00;;;13.80;99.90;;;;;;4976044;28;20189;-81
2023/05/12 05:15:52;;;;;;;0.00;0.00;;;13.80;99.90;;;;;;4968931;28;20720;-81
2023/05/12 05:18:17;;;;;;;0.00;0.00;;;13.90;99.90;;;;;;4978069;28;20196;-82
2023/05/12 05:20:44;;;;;;;0.00;0.00;;;13.80;99.90;;;;;;4983746;28;20813;-81
2023/05/12 05:23:10;;;;;;;0.00;0.00;;;13.90;99.90;;;;;;4977766;28;20189;-82
2023/05/12 05:25:36;;;;;;;0.00;0.00;;;13.90;99.90;;;;;;4977790;28;20531;-81
2023/05/12 05:28:01;;;;;;;0.00;0.00;;;13.80;99.90;;;;;;4962499;28;20579;-81
2023/05/12 05:30:27;;;;;;;0.00;0.00;;;13.90;99.90;;;;;;4962712;28;20453;-81
2023/05/12 05:32:53;;;;;;;0.00;0.00;;;13.90;99.90;;;;;;4977900;28;20903;-83
2023/05/12 05:35:18;;;;;;;0.00;0.00;;;14.00;99.90;;;;;;4970183;28;20675;-82
2023/05/12 05:37:44;;;;;;;0.00;0.00;;;14.10;99.90;;;;;;4973279;28;20243;-81
2023/05/12 05:40:10;;;;;;;0.00;0.00;;;14.10;99.90;;;;;;4983923;28;20197;-81
2023/05/12 05:42:35;;;;;;;0.00;0.00;;;14.10;99.90;;;;;;4968300;28;20206;-82
2023/05/12 05:45:01;;;;;;;0.00;0.00;;;14.10;99.90;;;;;;4969697;28;20186;-80
2023/05/12 05:47:27;;;;;;;0.00;0.00;;;14.20;99.90;;;;;;4963998;28;20669;-82
2023/05/12 05:49:54;;;;;;;0.00;0.00;;;14.30;99.90;;;;;;4973333;28;20209;-81
2023/05/12 05:52:19;;;;;;;0.00;0.00;;;14.50;99.90;;;;;;4972223;28;20629;-81
2023/05/12 05:54:45;;;;;;;0.00;0.00;;;14.40;99.90;;;;;;4971504;28;20448;-81
2023/05/12 05:57:10;;;;;;;0.00;0.00;;;14.60;99.90;;;;;;4975186;28;20240;-83
2023/05/12 05:59:36;;;;;;;0.00;0.00;;;14.60;99.90;;;;;;4970590;28;20201;-83
2023/05/12 06:02:02;;;;;;;0.00;0.00;;;14.90;99.90;;;;;;4977806;28;20678;-83
2023/05/12 06:04:27;;;;;;;0.00;0.00;;;14.90;99.90;;;;;;4968649;28;20186;-84
2023/05/12 06:06:53;;;;;;;0.00;0.00;;;14.80;99.90;;;;;;4975164;28;21001;-83
2023/05/12 06:09:19;;;;;;;0.00;0.00;;;14.90;99.90;;;;;;4975805;28;20229;-83
2023/05/12 06:11:44;;;;;;;0.00;0.00;;;15.10;99.90;;;;;;4977402;28;20638;-83
2023/05/12 06:14:10;;;;;;;0.00;0.00;;;15.00;99.90;;;;;;4988320;28;20347;-82
2023/05/12 06:16:36;;;;;;;0.00;0.00;;;14.90;99.90;;;;;;4969568;28;20218;-83
2023/05/12 06:19:01;;;;;;;0.00;0.00;;;14.90;99.90;;;;;;4971342;28;20864;-82
2023/05/12 06:21:27;;;;;;;0.00;0.00;;;14.80;99.90;;;;;;4969458;28;20384;-83
2023/05/12 06:23:54;;;;;;;0.00;0.00;;;15.00;99.90;;;;;;4966822;28;20198;-81
2023/05/12 06:26:20;;;;;;;0.00;0.00;;;15.00;99.90;;;;;;4966585;28;20269;-82
2023/05/12 06:28:46;;;;;;;0.00;0.00;;;15.00;99.90;;;;;;4955586;28;20905;-83
2023/05/12 06:31:12;;;;;;;0.00;0.00;;;15.10;99.90;;;;;;4979027;28;20476;-84
2023/05/12 06:33:37;;;;;;;0.00;0.00;;;15.10;99.90;;;;;;4954533;28;20212;-84
2023/05/12 06:36:03;;;;;;;0.00;0.00;;;15.10;99.90;;;;;;4983746;28;20375;-84
2023/05/12 06:38:29;;;;;;;0.00;0.00;;;15.20;99.90;;;;;;4958517;28;20571;-82
2023/05/12 06:40:54;;;;;;;0.00;0.00;;;15.30;99.90;;;;;;4967349;28;20189;-82
2023/05/12 06:43:20;;;;;;;0.00;0.00;;;15.30;99.90;;;;;;4961491;28;20201;-82
2023/05/12 06:45:45;;;;;;;0.00;0.00;;;15.40;99.90;;;;;;4969186;28;20309;-85
2023/05/12 06:48:11;;;;;;;0.00;0.00;;;15.40;99.90;;;;;;4967435;28;20217;-85
2023/05/12 06:50:36;;;;;;;0.00;0.00;;;15.50;99.90;;;;;;4983448;28;20293;-84
2023/05/12 06:53:02;;;;;;;0.00;0.00;;;15.50;99.90;;;;;;4966062;28;20229;-85
2023/05/12 06:55:27;;;;;;;0.00;0.00;;;15.60;99.90;;;;;;4955048;28;20289;-85
2023/05/12 06:57:54;;;;;;;0.00;0.00;;;15.70;99.90;;;;;;4993047;28;20309;-84
2023/05/12 07:00:24;;;;;;;0.00;0.00;;;15.90;99.90;;;;;;4950410;28;20662;-84
2023/05/12 07:02:50;;;;;;;0.00;0.00;;;15.90;99.90;;;;;;4976257;28;20477;-84
2023/05/12 07:05:17;;;;;;;0.00;0.00;;;16.00;99.90;;;;;;4964190;28;20840;-86
2023/05/12 07:07:43;;;;;;;0.00;0.00;;;16.20;99.90;;;;;;4978287;28;20487;-85
2023/05/12 07:10:09;;;;;;;0.00;0.00;;;16.30;99.90;;;;;;4977359;28;20818;-86
2023/05/12 07:12:36;;;;;;;0.00;0.00;;;16.50;99.90;;;;;;4982528;28;20440;-84
2023/05/12 07:15:01;;;;;;;0.00;0.00;;;16.60;99.90;;;;;;4981593;28;20452;-85
2023/05/12 07:17:27;;;;;;;0.00;0.00;;;16.70;99.90;;;;;;4971685;28;20825;-85
2023/05/12 07:19:53;;;;;;;0.00;0.00;;;16.90;99.90;;;;;;4969163;28;20677;-84
2023/05/12 07:22:19;;;;;;;0.00;0.00;;;17.00;99.90;;;;;;4978717;28;20452;-84
2023/05/12 07:24:44;;;;;;;0.00;0.00;;;17.10;99.90;;;;;;4978304;28;21253;-85
2023/05/12 07:27:10;;;;;;;0.00;0.00;;;17.10;99.90;;;;;;4993831;28;20243;-84
2023/05/12 07:29:36;;;;;;;0.00;0.00;;;17.30;99.90;;;;;;4964381;28;20333;-84
2023/05/12 07:32:02;;;;;;;0.00;0.00;;;17.50;99.90;;;;;;4960285;28;20185;-84
2023/05/12 07:34:27;;;;;;;0.00;0.00;;;17.80;99.90;;;;;;4968368;28;20182;-83
2023/05/12 07:36:53;;;;;;;0.00;0.00;;;18.10;99.90;;;;;;4966097;28;20186;-83
2023/05/12 07:39:22;;;;;;;0.00;0.00;;;18.40;99.90;;;;;;4965726;28;20243;-83
2023/05/12 07:41:48;;;;;;;0.00;0.00;;;18.30;99.90;;;;;;4978504;28;20189;-84
2023/05/12 07:44:15;;;;;;;0.00;0.00;;;18.40;99.90;;;;;;4977404;28;20454;-83
2023/05/12 07:46:40;;;;;;;0.00;0.00;;;18.60;99.90;;;;;;4980408;28;20451;-83
2023/05/12 07:49:06;;;;;;;0.00;0.00;;;18.70;99.90;;;;;;4967014;28;20492;-84
2023/05/12 07:51:31;;;;;;;0.00;0.00;;;18.70;99.90;;;;;;4970770;28;20325;-83
2023/05/12 07:53:57;;;;;;;0.00;0.00;;;18.60;99.90;;;;;;4962553;28;20195;-84
2023/05/12 07:56:23;;;;;;;0.00;0.00;;;18.60;99.90;;;;;;4967636;28;20186;-85
2023/05/12 07:58:48;;;;;;;0.00;0.00;;;18.50;99.90;;;;;;4966554;28;20232;-83
2023/05/12 08:01:14;;;;;;;0.00;0.00;;;18.60;99.90;;;;;;4964397;28;20182;-83
2023/05/12 08:03:39;;;;;;;0.00;0.00;;;18.50;99.90;;;;;;4969694;28;20768;-83
2023/05/12 08:06:06;;;;;;;0.00;0.00;;;18.60;99.90;;;;;;4972077;28;20190;-83
2023/05/12 08:08:32;;;;;;;0.00;0.00;;;18.70;99.90;;;;;;4964235;28;20240;-83
2023/05/12 08:10:58;;;;;;;0.00;0.00;;;18.90;99.90;;;;;;4982397;28;20421;-84
2023/05/12 08:13:25;;;;;;;0.00;0.00;;;19.00;99.90;;;;;;4985965;28;20500;-83
2023/05/12 08:15:50;;;;;;;0.00;0.00;;;19.00;99.90;;;;;;5000344;28;20564;-83
2023/05/12 08:18:16;;;;;;;0.00;0.00;;;19.10;99.90;;;;;;4983893;28;20455;-83
2023/05/12 08:20:41;;;;;;;0.00;0.00;;;19.30;99.90;;;;;;4984545;28;20197;-83
2023/05/12 08:23:07;;;;;;;0.00;0.00;;;19.40;99.90;;;;;;4961715;28;20596;-83
2023/05/12 08:25:34;;;;;;;0.00;0.00;;;19.50;99.90;;;;;;4982233;28;20269;-83
2023/05/12 08:28:00;;;;;;;0.00;0.00;;;19.80;99.90;;;;;;4973789;28;20297;-82
2023/05/12 08:30:26;;;;;;;0.00;0.00;;;19.80;99.90;;;;;;4975422;28;20450;-82
2023/05/12 08:32:55;;;;;;;0.00;0.00;;;19.70;99.90;;;;;;4990016;28;20792;-82
2023/05/12 08:35:23;;;;;;;0.00;0.00;;;20.00;99.90;;;;;;4973860;28;20445;-83
2023/05/12 08:37:48;;;;;;;0.00;0.00;;;20.20;99.90;;;;;;4977141;28;20502;-83
2023/05/12 08:40:19;;;;;;;0.00;0.00;;;20.20;99.90;;;;;;4972025;28;20524;-83
2023/05/12 08:43:05;;;;;;;0.00;0.00;;;20.40;99.90;;;;;;4960912;28;20622;-82
2023/05/12 08:45:31;;;;;;;0.00;0.00;;;20.50;99.90;;;;;;4971017;28;20470;-82
2023/05/12 08:47:58;;;;;;;0.00;0.00;;;20.50;99.90;;;;;;4974686;28;20475;-82
2023/05/12 08:50:25;;;;;;;0.00;0.00;;;20.70;99.90;;;;;;4979485;28;20181;-82
2023/05/12 08:52:52;;;;;;;0.00;0.00;;;20.90;99.90;;;;;;4981755;28;20452;-82
2023/05/12 08:55:19;;;;;;;0.00;0.00;;;21.00;99.90;;;;;;4980383;28;20433;-81
2023/05/12 08:57:47;;;;;;;0.00;0.00;;;21.00;99.90;;;;;;4984834;28;20806;-82
2023/05/12 09:00:14;;;;;;;0.00;0.00;;;21.20;99.90;;;;;;4968564;28;20980;-82
2023/05/12 09:02:41;;;;;;;0.00;0.00;;;21.40;99.90;;;;;;4978373;28;20451;-82
2023/05/12 09:05:10;;;;;;;0.00;0.00;;;21.30;99.90;;;;;;4987307;28;20456;-82
2023/05/12 09:07:41;;;;;;;0.00;0.00;;;21.60;99.90;;;;;;4962930;28;20984;-82
2023/05/12 09:10:14;;;;;;;0.00;0.00;;;21.60;99.90;;;;;;4965642;28;20461;-82
2023/05/12 09:12:41;;;;;;;0.00;0.00;;;21.50;99.90;;;;;;4963886;28;20796;-82
2023/05/12 09:15:09;;;;;;;0.00;0.00;;;21.70;99.90;;;;;;4983157;28;20449;-82
2023/05/12 09:17:35;;;;;;;0.00;0.00;;;21.80;99.90;;;;;;4994616;28;20431;-82
2023/05/12 09:20:02;;;;;;;0.00;0.00;;;22.00;99.90;;;;;;4975227;28;20442;-82
2023/05/12 09:22:33;;;;;;;0.00;0.00;;;22.10;99.90;;;;;;4954466;28;20666;-82
2023/05/12 09:24:59;;;;;;;0.00;0.00;;;22.30;99.90;;;;;;4984607;28;20506;-82
2023/05/12 09:27:28;;;;;;;0.00;0.00;;;22.10;99.90;;;;;;4978617;28;20961;-81
2023/05/12 09:29:55;;;;;;;0.00;0.00;;;22.10;99.90;;;;;;4965604;28;20977;-81
2023/05/12 09:32:33;;;;;;;0.00;0.00;;;22.10;99.90;;;;;;4970748;28;20446;-82
2023/05/12 09:35:09;;;;;;;0.00;0.00;;;22.20;99.90;;;;;;4985051;28;20452;-82
2023/05/12 09:37:35;;;;;;;0.00;0.00;;;22.30;99.90;;;;;;4974041;28;20494;-81
2023/05/12 09:40:03;;;;;;;0.00;0.00;;;22.70;99.90;;;;;;4984406;28;21141;-82
2023/05/12 09:42:30;;;;;;;0.00;0.00;;;22.60;99.90;;;;;;4970872;28;20507;-81
2023/05/12 09:45:08;;;;;;;0.00;0.00;;;22.50;99.90;;;;;;4967990;28;20988;-82
2023/05/12 09:47:35;;;;;;;0.00;0.00;;;22.60;99.90;;;;;;4982944;28;20475;-82
2023/05/12 09:50:05;;;;;;;0.00;0.00;;;22.80;99.90;;;;;;4975602;28;20456;-82
2023/05/12 09:52:35;;;;;;;0.00;0.00;;;22.90;99.90;;;;;;4975916;28;20456;-82
2023/05/12 09:55:05;;;;;;;0.00;0.00;;;23.20;99.90;;;;;;4984847;28;20464;-81
2023/05/12 09:57:34;;;;;;;0.00;0.00;;;23.00;99.90;;;;;;4954788;28;20446;-82
2023/05/12 10:00:00;;;;;;;0.00;0.00;;;23.10;99.90;;;;;;4966669;28;20446;-79
2023/05/12 10:02:26;;;;;;;0.00;0.00;;;23.40;99.90;;;;;;4969906;28;20453;-80
2023/05/12 10:04:59;;;;;;;0.00;0.00;;;23.60;99.90;;;;;;4979846;28;20511;-80
2023/05/12 10:07:27;;;;;;;0.00;0.00;;;23.80;99.90;;;;;;4958171;28;20629;-79
2023/05/12 10:09:58;;;;;;;0.00;0.00;;;23.80;99.90;;;;;;4980317;28;20453;-82
2023/05/12 10:12:23;;;;;;;0.00;0.00;;;23.40;99.90;;;;;;4980915;28;20452;-82
2023/05/12 10:14:50;;;;;;;0.00;0.00;;;23.60;99.90;;;;;;4966875;28;20496;-82
2023/05/12 10:17:18;;;;;;;0.00;0.00;;;23.40;99.90;;;;;;4974563;28;20189;-76
2023/05/12 10:19:45;;;;;;;0.00;0.00;;;23.80;99.90;;;;;;4976618;28;20459;-77
2023/05/12 10:22:11;;;;;;;0.00;0.00;;;24.20;99.90;;;;;;4970679;28;20627;-77
2023/05/12 10:24:38;;;;;;;0.00;0.00;;;24.30;99.90;;;;;;4973335;28;20442;-78
2023/05/12 10:27:07;;;;;;;0.00;0.00;;;24.50;99.90;;;;;;4960689;28;20452;-77
2023/05/12 10:29:33;;;;;;;0.00;0.00;;;24.60;99.90;;;;;;4961373;28;20486;-77
2023/05/12 10:32:00;;;;;;;0.00;0.00;;;24.20;99.90;;;;;;4964715;28;20446;-77
2023/05/12 10:34:39;;;;;;;0.00;0.00;;;24.40;99.90;;;;;;4967092;28;21063;-78
2023/05/12 10:37:09;;;;;;;0.00;0.00;;;24.40;99.90;;;;;;4940186;28;20440;-77
2023/05/12 10:39:36;;;;;;;0.00;0.00;;;24.70;99.90;;;;;;4971572;28;20930;-77
2023/05/12 10:42:08;;;;;;;0.00;0.00;;;24.90;99.90;;;;;;4968269;28;20461;-78
2023/05/12 10:44:35;;;;;;;0.00;0.00;;;25.30;99.90;;;;;;4964010;28;20457;-77
2023/05/12 10:47:01;;;;;;;0.00;0.00;;;25.40;99.90;;;;;;4971237;28;20438;-77
2023/05/12 10:49:37;;;;;;;0.00;0.00;;;25.40;99.90;;;;;;4972410;28;20499;-77
2023/05/12 10:52:04;;;;;;;0.00;0.00;;;25.30;99.90;;;;;;4980208;28;20186;-77
2023/05/12 10:54:40;;;;;;;0.00;0.00;;;25.20;99.90;;;;;;4971617;28;20425;-77
2023/05/12 10:57:15;;;;;;;0.00;0.00;;;25.50;99.90;;;;;;4944192;28;20444;-77
2023/05/12 10:59:57;;;;;;;0.00;0.00;;;25.70;99.90;;;;;;4976820;28;20450;-77
2023/05/12 11:02:24;;;;;;;0.00;0.00;;;25.60;99.90;;;;;;4965319;28;20437;-77
2023/05/12 11:04:58;;;;;;;0.00;0.00;;;26.10;99.90;;;;;;4983776;28;20444;-77
2023/05/12 11:07:26;;;;;;;0.00;0.00;;;26.40;99.90;;;;;;4963787;28;20511;-77
2023/05/12 11:09:53;;;;;;;0.00;0.00;;;26.30;99.90;;;;;;4975461;28;20495;-77
2023/05/12 11:12:19;;;;;;;0.00;0.00;;;26.50;99.90;;;;;;4968014;28;20441;-77
2023/05/12 11:14:45;;;;;;;0.00;0.00;;;26.70;99.90;;;;;;4964496;28;20457;-77
2023/05/12 11:17:11;;;;;;;0.00;0.00;;;26.90;99.90;;;;;;4996677;28;20186;-77
2023/05/12 11:19:38;;;;;;;0.00;0.00;;;27.00;99.90;;;;;;4976949;28;20973;-77
2023/05/12 11:22:10;;;;;;;0.00;0.00;;;26.70;99.60;;;;;;4969552;28;20195;-76
2023/05/12 11:24:37;;;;;;;0.00;0.00;;;26.50;97.80;;;;;;4989071;28;20457;-78
2023/05/12 11:27:03;;;;;;;0.00;0.00;;;27.00;97.80;;;;;;4955480;28;20446;-78
2023/05/12 11:29:29;;;;;;;0.00;0.00;;;27.50;94.60;;;;;;4973145;28;20497;-77
2023/05/12 11:31:55;;;;;;;0.00;0.00;;;27.70;95.90;;;;;;4971733;28;20437;-78
2023/05/12 11:34:26;;;;;;;0.00;0.00;;;27.30;93.20;;;;;;4979901;28;20499;-77
2023/05/12 11:36:53;;;;;;;0.00;0.00;;;27.30;93.60;;;;;;4974569;28;20189;-77
2023/05/12 11:39:23;;;;;;;0.00;0.00;;;27.60;94.00;;;;;;4988119;28;20471;-78
2023/05/12 11:41:49;;;;;;;0.00;0.00;;;27.40;96.60;;;;;;4970300;28;20520;-77
2023/05/12 11:44:20;;;;;;;0.00;0.00;;;27.50;94.30;;;;;;4967196;28;20531;-77
2023/05/12 11:46:55;;;;;;;0.00;0.00;;;27.50;96.40;;;;;;4969027;28;20448;-77
2023/05/12 11:49:21;;;;;;;0.00;0.00;;;27.40;95.40;;;;;;4974629;28;20533;-77
2023/05/12 11:51:47;;;;;;;0.00;0.00;;;27.80;95.70;;;;;;4978986;28;20469;-77
2023/05/12 11:54:14;;;;;;;0.00;0.00;;;27.80;95.80;;;;;;4957989;28;20595;-77
2023/05/12 11:56:47;;;;;;;0.00;0.00;;;27.80;94.90;;;;;;4973297;28;20181;-78
2023/05/12 11:59:12;;;;;;;0.00;0.00;;;27.90;95.50;;;;;;4983648;28;20449;-77
2023/05/12 12:01:45;;;;;;;0.00;0.00;;;27.80;94.80;;;;;;4951577;28;20979;-77
2023/05/12 12:04:11;;;;;;;0.00;0.00;;;27.80;96.10;;;;;;4980221;28;20206;-77
2023/05/12 12:06:43;;;;;;;0.00;0.00;;;27.90;96.40;;;;;;4965633;28;20457;-77
2023/05/12 12:09:09;;;;;;;0.00;0.00;;;27.80;95.50;;;;;;4952062;28;20524;-77
2023/05/12 12:11:35;;;;;;;0.00;0.00;;;28.00;96.90;;;;;;4951270;28;21192;-78
2023/05/12 12:14:01;;;;;;;0.00;0.00;;;28.40;97.10;;;;;;4952974;28;20667;-77
2023/05/12 12:16:28;;;;;;;0.00;0.00;;;28.00;81.20;;;;;;4964378;28;20746;-77
2023/05/12 12:18:54;;;;;;;0.00;0.00;;;28.00;81.40;;;;;;4950496;28;20981;-77
2023/05/12 12:21:21;;;;;;;0.00;0.00;;;27.60;81.00;;;;;;4952326;28;20449;-78
2023/05/12 12:23:47;;;;;;;0.00;0.00;;;27.80;81.00;;;;;;4967701;28;20185;-78
2023/05/12 12:26:15;;;;;;;0.00;0.00;;;27.60;83.90;;;;;;4972951;28;20441;-75
2023/05/12 12:28:47;;;;;;;0.00;0.00;;;27.60;82.60;;;;;;4981125;28;21160;-79
2023/05/12 12:31:13;;;;;;;0.00;0.00;;;27.20;82.20;;;;;;4969396;28;20449;-80
2023/05/12 12:33:39;;;;;;;0.00;0.00;;;27.20;85.60;;;;;;4970608;28;20460;-79
2023/05/12 12:36:05;;;;;;;0.00;0.00;;;27.00;90.30;;;;;;4971709;28;20189;-79
2023/05/12 12:38:31;;;;;;;0.00;0.00;;;27.40;90.30;;;;;;4957117;28;21049;-79
2023/05/12 12:40:57;;;;;;;0.00;0.00;;;27.50;91.10;;;;;;4982101;28;20195;-79
2023/05/12 12:43:22;;;;;;;0.00;0.00;;;27.10;91.40;;;;;;4961336;28;20577;-79
2023/05/12 12:45:48;;;;;;;0.00;0.00;;;26.90;90.90;;;;;;4974832;28;20444;-79